Terminal Aerodrome Forecast
Issued by NWS

Home | Current Version | Previous Version | Text Only | Print | Product List | Glossary On
Versions: 1 2 3 4 5 6 7 8 9 10 11 12 13 14 15
000
FTUS43 KDTX 291738
TAFMBS
TAF
KMBS 291738Z 2918/3018 22019G29KT P6SM OVC150
      TEMPO 2919/2920 5SM -SHRASN BKN040
     FM292000 22020G32KT 3SM -SHRASN OVC015
     FM300000 24015G24KT 2SM -DZ BR OVC007
     FM300600 23012KT P6SM OVC010
     FM301400 27012KT P6SM BKN025=

USA.gov is the U.S. government's official web portal to all federal, state and local government web resources and services.